createdAt,value
2022-10-26T00:01:07.646Z,13.51
2022-10-26T00:03:34.734Z,12.61
2022-10-26T00:06:03.111Z,12.32
2022-10-26T00:08:29.863Z,12.29
2022-10-26T00:10:57.619Z,11.39
2022-10-26T00:13:24.976Z,12.03
2022-10-26T00:15:54.106Z,12.18
2022-10-26T00:18:20.808Z,12.67
2022-10-26T00:20:50.415Z,12.18
2022-10-26T00:23:17.049Z,12.21
2022-10-26T00:25:44.012Z,12.66
2022-10-26T00:28:11.003Z,13.20
2022-10-26T00:30:40.540Z,12.66
2022-10-26T00:33:07.559Z,12.88
2022-10-26T00:35:45.446Z,13.12
2022-10-26T00:38:13.035Z,13.69
2022-10-26T00:40:39.932Z,13.88
2022-10-26T00:43:10.497Z,13.64
2022-10-26T00:45:42.726Z,13.87
2022-10-26T00:48:10.160Z,14.82
2022-10-26T00:50:37.104Z,14.59
2022-10-26T00:53:04.750Z,15.25
2022-10-26T00:55:31.902Z,15.32
2022-10-26T00:58:01.280Z,15.97
2022-10-26T01:00:28.355Z,16.03
2022-10-26T01:02:55.247Z,16.54
2022-10-26T01:05:22.220Z,16.46
2022-10-26T01:07:49.034Z,15.71
2022-10-26T01:10:17.570Z,15.20
2022-10-26T01:12:44.254Z,15.01
2022-10-26T01:15:13.782Z,14.89
2022-10-26T01:17:41.303Z,14.88
2022-10-26T01:20:08.957Z,14.68
2022-10-26T01:22:36.350Z,14.16
2022-10-26T01:25:03.295Z,13.95
2022-10-26T01:27:30.228Z,14.30
2022-10-26T01:29:57.207Z,13.69
2022-10-26T01:32:24.155Z,14.15
2022-10-26T01:34:50.958Z,14.15
2022-10-26T01:37:18.642Z,13.88
2022-10-26T01:39:45.386Z,14.08
2022-10-26T01:42:13.997Z,14.36
2022-10-26T01:44:41.659Z,13.94
2022-10-26T01:47:08.670Z,14.03
2022-10-26T01:49:40.206Z,13.91
2022-10-26T01:52:07.442Z,14.18
2022-10-26T01:54:34.470Z,14.17
2022-10-26T01:57:01.774Z,13.66
2022-10-26T01:59:29.390Z,13.26
2022-10-26T02:01:56.391Z,14.08
2022-10-26T02:06:51.761Z,12.87
2022-10-26T02:09:25.413Z,13.24
2022-10-26T02:11:55.694Z,13.20
2022-10-26T02:14:22.486Z,12.45
2022-10-26T02:16:49.975Z,10.76
2022-10-26T02:19:16.899Z,8.69
2022-10-26T02:21:44.289Z,7.72
2022-10-26T02:24:11.791Z,7.48
2022-10-26T02:26:42.417Z,7.11
2022-10-26T02:29:09.483Z,7.50
2022-10-26T02:31:36.771Z,7.20
2022-10-26T02:34:04.660Z,7.36
2022-10-26T02:36:31.697Z,7.27
2022-10-26T02:38:58.844Z,7.27
2022-10-26T02:41:25.766Z,7.12
2022-10-26T02:43:54.014Z,7.44
2022-10-26T02:46:21.036Z,7.94
2022-10-26T02:48:48.410Z,7.59
2022-10-26T02:51:16.958Z,8.20
2022-10-26T02:53:43.909Z,9.68
2022-10-26T02:56:10.966Z,11.14
2022-10-26T02:58:39.915Z,11.55
2022-10-26T03:01:09.102Z,12.83
2022-10-26T03:03:36.070Z,13.14
2022-10-26T03:06:05.443Z,13.24
2022-10-26T03:08:36.092Z,13.51
2022-10-26T03:11:05.004Z,12.38
2022-10-26T03:13:32.618Z,11.59
2022-10-26T03:16:00.378Z,11.61
2022-10-26T03:18:27.292Z,11.29
2022-10-26T03:20:58.841Z,11.43
2022-10-26T03:23:25.716Z,10.37
2022-10-26T03:25:52.904Z,7.39
2022-10-26T03:28:19.605Z,6.82
2022-10-26T03:30:46.599Z,6.87
2022-10-26T03:33:13.715Z,6.57
2022-10-26T03:35:43.100Z,9.28
2022-10-26T03:38:15.270Z,11.17
2022-10-26T03:40:47.063Z,11.27
2022-10-26T03:43:14.207Z,11.25
2022-10-26T03:45:41.135Z,11.39
2022-10-26T03:48:08.848Z,10.65
2022-10-26T03:50:35.819Z,9.76
2022-10-26T03:53:02.889Z,8.87
2022-10-26T03:55:29.805Z,8.20
2022-10-26T03:57:58.552Z,7.76
2022-10-26T04:00:32.280Z,7.10
2022-10-26T04:03:03.674Z,6.96
2022-10-26T04:05:31.298Z,6.81
2022-10-26T04:07:58.337Z,7.03
2022-10-26T04:10:26.161Z,8.06
2022-10-26T04:13:14.244Z,7.69
2022-10-26T04:15:41.319Z,7.73
2022-10-26T04:18:08.852Z,7.85
2022-10-26T04:20:35.535Z,7.71
2022-10-26T04:23:05.467Z,7.25
2022-10-26T04:25:34.201Z,7.49
2022-10-26T04:28:01.298Z,7.82
2022-10-26T04:30:28.187Z,7.53
2022-10-26T04:32:57.479Z,7.90
2022-10-26T04:35:25.071Z,9.00
2022-10-26T04:37:51.779Z,9.49
2022-10-26T04:40:22.533Z,9.21
2022-10-26T04:42:53.321Z,9.07
2022-10-26T04:45:24.977Z,9.65
2022-10-26T04:47:52.005Z,10.85
2022-10-26T04:50:26.185Z,10.81
2022-10-26T04:52:58.671Z,11.36
2022-10-26T04:55:25.494Z,11.42
2022-10-26T04:57:54.840Z,10.91
2022-10-26T05:00:23.982Z,12.06
2022-10-26T05:02:50.646Z,12.18
2022-10-26T05:05:17.541Z,11.76
2022-10-26T05:07:45.123Z,11.44
2022-10-26T05:10:12.316Z,11.68
2022-10-26T05:12:39.263Z,11.73
2022-10-26T05:15:08.631Z,11.75
2022-10-26T05:17:38.996Z,11.13
2022-10-26T05:20:11.202Z,11.10
2022-10-26T05:22:38.445Z,11.40
2022-10-26T05:25:05.999Z,11.30
2022-10-26T05:30:14.519Z,10.99
2022-10-26T05:32:42.325Z,11.14
2022-10-26T05:35:10.016Z,11.44
2022-10-26T05:37:49.470Z,11.47
2022-10-26T05:40:22.584Z,11.68
2022-10-26T05:42:52.111Z,11.83
2022-10-26T05:45:35.629Z,11.99
2022-10-26T05:48:10.421Z,11.12
2022-10-26T05:50:41.976Z,11.19
2022-10-26T05:53:21.139Z,9.96
2022-10-26T06:01:13.239Z,8.77
2022-10-26T06:06:42.045Z,8.07
2022-10-26T06:09:15.027Z,8.23
2022-10-26T06:11:43.312Z,7.95
2022-10-26T06:14:18.699Z,8.43
2022-10-26T06:16:54.172Z,8.15
2022-10-26T06:19:42.451Z,8.16
2022-10-26T06:22:14.292Z,7.73
2022-10-26T06:24:52.228Z,8.03
2022-10-26T06:27:22.420Z,7.85
2022-10-26T06:29:57.505Z,8.09
2022-10-26T06:32:28.169Z,8.37
2022-10-26T06:35:01.741Z,8.73
2022-10-26T06:37:51.238Z,8.07
2022-10-26T06:40:20.057Z,8.31
2022-10-26T06:42:50.242Z,8.72
2022-10-26T06:45:22.337Z,8.89
2022-10-26T06:47:51.103Z,9.38
2022-10-26T06:50:23.879Z,9.24
2022-10-26T07:01:43.181Z,10.07
2022-10-26T07:04:10.419Z,9.66
2022-10-26T07:06:39.355Z,9.40
2022-10-26T07:09:07.459Z,9.48
2022-10-26T07:11:37.214Z,9.72
2022-10-26T07:14:04.941Z,9.78
2022-10-26T07:16:31.955Z,9.88
2022-10-26T07:19:07.858Z,9.27
2022-10-26T07:21:42.697Z,9.24
2022-10-26T07:24:10.298Z,7.10
2022-10-26T07:26:40.436Z,7.22
2022-10-26T07:29:43.654Z,6.40
2022-10-26T07:32:09.262Z,5.46
2022-10-26T07:37:22.905Z,4.40
2022-10-26T07:39:54.130Z,4.36
2022-10-26T07:42:21.365Z,4.67
2022-10-26T07:45:00.360Z,4.81
2022-10-26T07:47:28.165Z,4.84
2022-10-26T07:49:58.516Z,4.38
2022-10-26T07:52:39.429Z,3.56
2022-10-26T07:57:57.920Z,3.56
2022-10-26T08:00:32.953Z,4.20
2022-10-26T08:03:05.692Z,3.32
2022-10-26T08:05:35.107Z,2.49
2022-10-26T08:08:04.370Z,2.59
2022-10-26T08:10:31.484Z,2.69
2022-10-26T08:12:58.522Z,2.80
2022-10-26T08:15:26.201Z,2.85
2022-10-26T08:17:56.492Z,2.63
2022-10-26T08:20:26.104Z,2.39
2022-10-26T08:22:53.789Z,2.66
2022-10-26T08:25:23.186Z,2.63
2022-10-26T08:27:58.774Z,2.58
2022-10-26T08:33:06.508Z,4.76
2022-10-26T08:35:33.903Z,6.09
2022-10-26T08:38:04.445Z,4.91
2022-10-26T08:40:35.506Z,4.81
2022-10-26T08:43:10.497Z,4.12
2022-10-26T08:45:39.794Z,3.69
2022-10-26T08:50:49.589Z,4.21
2022-10-26T08:53:17.359Z,4.18
2022-10-26T08:55:46.113Z,4.34
2022-10-26T08:58:17.561Z,4.30
2022-10-26T09:03:30.108Z,4.50
2022-10-26T09:09:15.168Z,4.47
2022-10-26T09:11:42.439Z,4.12
2022-10-26T09:14:09.400Z,3.93
2022-10-26T09:16:41.240Z,3.81
2022-10-26T09:19:10.510Z,3.98
2022-10-26T09:21:37.766Z,4.29
2022-10-26T09:24:08.551Z,4.10
2022-10-26T09:26:36.037Z,4.40
2022-10-26T09:29:05.022Z,3.79
2022-10-26T09:31:33.778Z,4.14
2022-10-26T09:34:01.386Z,4.36
2022-10-26T09:36:30.826Z,4.49
2022-10-26T09:38:57.700Z,4.27
2022-10-26T09:44:09.371Z,4.03
2022-10-26T09:46:41.243Z,4.38
2022-10-26T09:49:14.810Z,4.02
2022-10-26T09:51:43.474Z,4.06
2022-10-26T09:54:10.867Z,4.10
2022-10-26T09:56:40.794Z,4.07
2022-10-26T10:01:50.130Z,4.34
2022-10-26T10:04:17.460Z,3.64
2022-10-26T10:06:47.003Z,3.64
2022-10-26T10:09:20.659Z,3.27
2022-10-26T10:11:49.966Z,3.26
2022-10-26T10:14:19.805Z,3.67
2022-10-26T10:16:51.211Z,3.18
2022-10-26T10:19:21.933Z,3.12
2022-10-26T10:22:00.389Z,2.90
2022-10-26T10:24:38.919Z,3.13
2022-10-26T10:27:12.159Z,2.97
2022-10-26T10:29:41.975Z,2.76
2022-10-26T10:32:10.539Z,2.73
2022-10-26T10:34:42.589Z,2.48
2022-10-26T10:37:10.135Z,2.35
2022-10-26T10:39:37.075Z,2.39
2022-10-26T10:42:05.575Z,2.25
2022-10-26T10:44:39.118Z,2.05
2022-10-26T10:47:05.996Z,2.49
2022-10-26T10:49:33.116Z,2.58
2022-10-26T10:52:10.331Z,2.80
2022-10-26T10:54:52.636Z,2.58
2022-10-26T10:57:40.869Z,2.47
2022-10-26T11:00:09.821Z,2.30
2022-10-26T11:02:40.241Z,2.14
2022-10-26T11:05:08.789Z,2.54
2022-10-26T11:07:35.500Z,2.72
2022-10-26T11:12:49.188Z,2.46
2022-10-26T11:15:16.555Z,2.36
2022-10-26T11:17:47.832Z,2.43
2022-10-26T11:20:18.211Z,2.15
2022-10-26T11:22:46.054Z,2.25
2022-10-26T11:25:15.298Z,2.26
2022-10-26T11:27:44.104Z,2.24
2022-10-26T11:30:17.956Z,2.34
2022-10-26T11:32:46.770Z,2.28
2022-10-26T11:35:13.927Z,2.33
2022-10-26T11:37:46.938Z,2.32
2022-10-26T11:40:26.398Z,2.31
2022-10-26T11:43:02.346Z,2.48
2022-10-26T11:45:30.983Z,2.63
2022-10-26T11:47:59.938Z,2.61
2022-10-26T11:50:27.802Z,2.49
2022-10-26T11:52:57.594Z,2.44
2022-10-26T11:55:25.284Z,2.45
2022-10-26T11:57:54.389Z,2.42
2022-10-26T12:00:22.122Z,2.63
2022-10-26T12:02:53.563Z,2.31
2022-10-26T12:05:28.588Z,2.73
2022-10-26T12:07:59.948Z,2.77
2022-10-26T12:10:27.598Z,2.39
2022-10-26T12:12:55.586Z,2.26
2022-10-26T12:15:30.856Z,2.84
2022-10-26T12:18:11.708Z,2.51
2022-10-26T12:20:38.546Z,2.20
2022-10-26T12:23:05.593Z,2.80
2022-10-26T12:25:32.467Z,2.86
2022-10-26T12:27:59.812Z,2.65
2022-10-26T12:30:27.365Z,2.35
2022-10-26T12:32:59.204Z,3.00
2022-10-26T12:35:26.867Z,2.43
2022-10-26T12:37:55.551Z,1.88
2022-10-26T12:40:22.932Z,2.22
2022-10-26T12:42:50.078Z,2.01
2022-10-26T12:45:17.238Z,1.96
2022-10-26T12:47:49.868Z,2.13
2022-10-26T12:50:18.052Z,2.09
2022-10-26T12:52:47.045Z,1.98
2022-10-26T12:55:14.828Z,2.03
2022-10-26T12:57:42.161Z,3.10
2022-10-26T13:00:17.915Z,2.24
2022-10-26T13:02:45.121Z,2.16
2022-10-26T13:05:15.141Z,2.09
2022-10-26T13:07:47.915Z,2.06
2022-10-26T13:10:18.615Z,2.53
2022-10-26T13:12:46.490Z,2.70
2022-10-26T13:15:21.582Z,2.51
2022-10-26T13:17:48.627Z,3.04
2022-10-26T13:23:12.516Z,2.26
2022-10-26T13:25:40.053Z,2.32
2022-10-26T13:28:12.326Z,2.25
2022-10-26T13:30:43.426Z,2.23
2022-10-26T13:33:32.477Z,2.77
2022-10-26T13:36:02.175Z,2.30
2022-10-26T13:38:30.249Z,2.72
2022-10-26T13:40:58.084Z,2.36
2022-10-26T13:43:25.316Z,2.16
2022-10-26T13:45:52.489Z,2.05
2022-10-26T13:48:19.589Z,2.33
2022-10-26T13:53:26.265Z,2.00
2022-10-26T13:56:01.096Z,2.19
2022-10-26T13:58:32.731Z,2.24
2022-10-26T14:00:59.638Z,2.04
2022-10-26T14:03:27.362Z,2.19
2022-10-26T14:05:54.367Z,1.99
2022-10-26T14:08:21.383Z,2.23
2022-10-26T14:10:49.013Z,2.15
2022-10-26T14:13:17.138Z,2.28
2022-10-26T14:15:45.717Z,2.24
2022-10-26T14:18:13.314Z,2.15
2022-10-26T14:20:41.101Z,2.31
2022-10-26T14:23:08.576Z,2.41
2022-10-26T14:25:47.880Z,2.10
2022-10-26T14:28:25.973Z,3.14
2022-10-26T14:30:52.745Z,2.72
2022-10-26T14:33:20.211Z,2.56
2022-10-26T14:35:47.054Z,2.34
2022-10-26T14:38:13.916Z,1.99
2022-10-26T14:40:40.631Z,2.07
2022-10-26T14:43:08.997Z,2.42
2022-10-26T14:45:51.580Z,2.61
2022-10-26T14:48:21.357Z,2.41
2022-10-26T14:50:49.771Z,2.11
2022-10-26T14:53:22.644Z,2.28
2022-10-26T14:55:50.401Z,2.39
2022-10-26T14:58:17.474Z,2.67
2022-10-26T15:00:45.299Z,2.89
2022-10-26T15:03:14.490Z,2.87
2022-10-26T15:05:41.702Z,2.79
2022-10-26T15:08:13.813Z,2.59
2022-10-26T15:10:44.795Z,2.64
2022-10-26T15:13:12.034Z,2.56
2022-10-26T15:15:39.818Z,2.88
2022-10-26T15:18:06.564Z,2.86
2022-10-26T15:20:37.571Z,2.75
2022-10-26T15:23:08.315Z,2.99
2022-10-26T15:25:45.260Z,2.74
2022-10-26T15:28:12.416Z,2.94
2022-10-26T15:30:40.202Z,3.16
2022-10-26T15:33:07.276Z,2.91
2022-10-26T15:35:41.812Z,2.92
2022-10-26T15:38:09.022Z,3.27
2022-10-26T15:40:36.767Z,3.81
2022-10-26T15:43:04.762Z,3.63
2022-10-26T15:45:32.758Z,4.00
2022-10-26T15:47:59.852Z,4.10
2022-10-26T15:50:27.037Z,3.85
2022-10-26T15:52:57.668Z,4.12
2022-10-26T15:55:25.139Z,3.39
2022-10-26T15:57:53.697Z,3.17
2022-10-26T16:00:20.715Z,3.42
2022-10-26T16:02:49.320Z,3.36
2022-10-26T16:05:17.124Z,3.48
2022-10-26T16:07:47.183Z,3.54
2022-10-26T16:10:23.576Z,3.80
2022-10-26T16:12:51.090Z,4.06
2022-10-26T16:15:18.341Z,3.21
2022-10-26T16:17:45.726Z,3.12
2022-10-26T16:20:13.530Z,3.42
2022-10-26T16:22:40.933Z,3.43
2022-10-26T16:25:13.346Z,3.13
2022-10-26T16:27:48.002Z,3.82
2022-10-26T16:30:15.634Z,4.34
2022-10-26T16:32:46.385Z,4.49
2022-10-26T16:35:16.869Z,4.09
2022-10-26T16:37:47.843Z,4.15
2022-10-26T16:40:18.856Z,4.84
2022-10-26T16:42:48.327Z,5.21
2022-10-26T16:45:20.136Z,5.39
2022-10-26T16:47:47.139Z,5.71
2022-10-26T16:50:14.116Z,5.54
2022-10-26T16:52:41.851Z,6.10
2022-10-26T16:55:13.627Z,5.64
2022-10-26T16:57:40.462Z,6.44
2022-10-26T17:00:07.630Z,7.28
2022-10-26T17:02:35.453Z,6.70
2022-10-26T17:05:07.211Z,6.77
2022-10-26T17:07:35.607Z,6.57
2022-10-26T17:10:02.903Z,6.31
2022-10-26T17:12:29.785Z,6.09
2022-10-26T17:15:00.763Z,5.94
2022-10-26T17:17:27.896Z,5.92
2022-10-26T17:19:55.295Z,5.89
2022-10-26T17:22:38.097Z,5.64
2022-10-26T17:25:13.079Z,5.82
2022-10-26T17:27:46.261Z,5.44
2022-10-26T17:30:16.496Z,5.67
2022-10-26T17:32:43.318Z,5.32
2022-10-26T17:35:13.769Z,5.57
2022-10-26T17:37:41.014Z,5.73
2022-10-26T17:40:08.125Z,5.84
2022-10-26T17:42:37.302Z,5.72
2022-10-26T17:45:04.304Z,6.09
2022-10-26T17:47:31.276Z,6.94
2022-10-26T17:52:46.949Z,5.73
2022-10-26T17:55:14.042Z,5.60
2022-10-26T17:57:42.074Z,5.49
2022-10-26T18:00:12.400Z,5.46
2022-10-26T18:02:43.374Z,5.61
2022-10-26T18:05:13.285Z,5.87
2022-10-26T18:07:40.327Z,6.37
2022-10-26T18:10:19.461Z,5.86
2022-10-26T18:12:55.774Z,5.65
2022-10-26T18:15:26.032Z,6.20
2022-10-26T18:17:58.307Z,9.59
2022-10-26T18:20:29.204Z,9.68
2022-10-26T18:22:57.021Z,7.88
2022-10-26T18:25:34.009Z,9.29
2022-10-26T18:28:01.188Z,10.35
2022-10-26T18:30:28.100Z,8.68
2022-10-26T18:32:56.749Z,7.49
2022-10-26T18:35:23.709Z,11.50
2022-10-26T18:37:52.582Z,12.16
2022-10-26T18:40:22.079Z,10.24
2022-10-26T18:42:48.744Z,8.96
2022-10-26T18:45:15.804Z,7.95
2022-10-26T18:47:44.123Z,9.07
2022-10-26T18:50:11.010Z,9.25
2022-10-26T18:52:38.642Z,10.72
2022-10-26T18:55:06.236Z,9.21
2022-10-26T18:57:33.259Z,11.71
2022-10-26T19:00:00.420Z,10.87
2022-10-26T19:02:34.490Z,10.28
2022-10-26T19:05:01.365Z,10.02
2022-10-26T19:07:28.062Z,8.89
2022-10-26T19:09:58.996Z,10.32
2022-10-26T19:12:26.712Z,8.57
2022-10-26T19:14:53.889Z,7.90
2022-10-26T19:17:24.620Z,8.92
2022-10-26T19:19:51.703Z,8.51
2022-10-26T19:22:20.411Z,8.56
2022-10-26T19:30:25.625Z,6.85
2022-10-26T19:33:15.220Z,7.00
2022-10-26T19:35:42.999Z,7.06
2022-10-26T19:38:10.697Z,7.72
2022-10-26T19:40:38.171Z,7.24
2022-10-26T19:43:08.168Z,6.93
2022-10-26T19:45:37.324Z,6.89
2022-10-26T19:48:04.238Z,6.88
2022-10-26T19:50:31.708Z,6.97
2022-10-26T19:52:58.708Z,6.25
2022-10-26T19:55:25.298Z,6.07
2022-10-26T19:58:03.552Z,5.80
2022-10-26T20:00:30.919Z,5.82
2022-10-26T20:02:59.581Z,5.97
2022-10-26T20:05:29.634Z,5.66
2022-10-26T20:08:04.769Z,5.68
2022-10-26T20:10:36.957Z,5.62
2022-10-26T20:15:46.422Z,5.46
2022-10-26T20:18:13.913Z,5.88
2022-10-26T20:20:41.262Z,5.49
2022-10-26T20:23:10.174Z,5.53
2022-10-26T20:25:37.021Z,5.34
2022-10-26T20:28:05.638Z,4.87
2022-10-26T20:30:32.975Z,5.15
2022-10-26T20:32:59.950Z,5.47
2022-10-26T20:35:27.341Z,5.33
2022-10-26T20:37:56.348Z,5.19
2022-10-26T20:40:23.230Z,5.31
2022-10-26T20:42:51.838Z,4.93
2022-10-26T20:45:21.874Z,5.14
2022-10-26T20:47:51.082Z,5.06
2022-10-26T20:50:18.319Z,5.33
2022-10-26T20:52:46.012Z,5.68
2022-10-26T20:55:12.946Z,5.42
2022-10-26T20:57:40.503Z,5.44
2022-10-26T21:00:09.687Z,5.38
2022-10-26T21:02:37.202Z,5.39
2022-10-26T21:05:04.041Z,4.96
2022-10-26T21:07:36.718Z,5.29
2022-10-26T21:10:05.898Z,5.24
2022-10-26T21:12:33.167Z,5.22
2022-10-26T21:15:02.103Z,4.92
2022-10-26T21:20:09.831Z,4.68
2022-10-26T21:22:38.906Z,4.81
2022-10-26T21:25:05.926Z,4.71
2022-10-26T21:27:33.038Z,4.82
2022-10-26T21:29:59.921Z,5.07
2022-10-26T21:32:27.686Z,4.94
2022-10-26T21:34:54.375Z,5.05
2022-10-26T21:37:21.440Z,4.96
2022-10-26T21:39:48.330Z,4.79
2022-10-26T21:42:17.406Z,4.89
2022-10-26T21:44:46.409Z,4.96
2022-10-26T21:47:13.480Z,5.21
2022-10-26T21:52:14.421Z,5.29
2022-10-26T21:54:45.204Z,5.22
2022-10-26T21:57:14.300Z,5.23
2022-10-26T21:59:41.421Z,5.24
2022-10-26T22:02:08.083Z,5.43
2022-10-26T22:04:34.899Z,5.33
2022-10-26T22:07:01.941Z,5.06
2022-10-26T22:09:29.378Z,4.96
2022-10-26T22:11:57.948Z,4.87
2022-10-26T22:14:25.447Z,5.21
2022-10-26T22:16:53.049Z,5.16
2022-10-26T22:19:20.976Z,4.95
2022-10-26T22:21:50.163Z,4.84
2022-10-26T22:24:20.163Z,4.88
2022-10-26T22:26:46.991Z,4.80
2022-10-26T22:29:13.864Z,4.90
2022-10-26T22:31:41.432Z,4.71
2022-10-26T22:34:09.416Z,4.81
2022-10-26T22:36:36.319Z,5.09
2022-10-26T22:39:03.214Z,4.61
2022-10-26T22:41:30.201Z,4.47
2022-10-26T22:43:57.149Z,4.95
2022-10-26T22:46:24.532Z,5.02
2022-10-26T22:48:51.280Z,4.98
2022-10-26T22:51:20.297Z,5.30
2022-10-26T22:53:54.582Z,4.91
2022-10-26T22:56:21.450Z,5.04
2022-10-26T22:58:48.497Z,4.82
2022-10-26T23:01:15.551Z,4.83
2022-10-26T23:03:42.524Z,4.88
2022-10-26T23:06:09.478Z,5.18
2022-10-26T23:08:36.405Z,4.87
2022-10-26T23:11:03.365Z,5.11
2022-10-26T23:13:30.230Z,4.72
2022-10-26T23:15:56.951Z,4.48
2022-10-26T23:18:25.381Z,4.79
2022-10-26T23:20:56.495Z,4.41
2022-10-26T23:23:23.391Z,4.81
2022-10-26T23:25:50.025Z,4.67
2022-10-26T23:28:17.095Z,4.86
2022-10-26T23:30:44.789Z,4.71
2022-10-26T23:33:11.653Z,4.93
2022-10-26T23:35:38.492Z,5.27
2022-10-26T23:38:05.509Z,4.98
2022-10-26T23:40:33.446Z,5.18
2022-10-26T23:43:06.655Z,4.73
2022-10-26T23:45:37.774Z,4.89
2022-10-26T23:48:04.466Z,6.41
2022-10-26T23:50:35.931Z,6.43
2022-10-26T23:53:02.662Z,6.05
2022-10-26T23:55:30.026Z,6.32
2022-10-26T23:57:57.557Z,6.42
